sensor_id;sensor_type;location;lat;lon;timestamp;pressure;altitude;pressure_sealevel;temperature;humidity
68476;BME280;55464;48.266;14.188;2023-09-30T00:00:58;98285.47;;;22.89;52.95
68476;BME280;55464;48.266;14.188;2023-09-30T00:03:24;98295.97;;;22.84;52.88
68476;BME280;55464;48.266;14.188;2023-09-30T00:05:50;98280.81;;;22.71;53.07
68476;BME280;55464;48.266;14.188;2023-09-30T00:08:15;98250.31;;;22.70;52.70
68476;BME280;55464;48.266;14.188;2023-09-30T00:10:41;98228.03;;;22.48;53.02
68476;BME280;55464;48.266;14.188;2023-09-30T00:13:07;98271.56;;;22.74;52.95
68476;BME280;55464;48.266;14.188;2023-09-30T00:15:35;98291.13;;;22.85;53.05
68476;BME280;55464;48.266;14.188;2023-09-30T00:18:01;98295.13;;;22.88;52.93
68476;BME280;55464;48.266;14.188;2023-09-30T00:20:30;98273.91;;;22.83;52.60
68476;BME280;55464;48.266;14.188;2023-09-30T00:22:55;98285.59;;;22.78;52.68
68476;BME280;55464;48.266;14.188;2023-09-30T00:25:20;98269.19;;;22.69;53.03
68476;BME280;55464;48.266;14.188;2023-09-30T00:27:47;98294.72;;;22.85;53.01
68476;BME280;55464;48.266;14.188;2023-09-30T00:30:13;98269.63;;;22.64;52.61
68476;BME280;55464;48.266;14.188;2023-09-30T00:32:38;98301.63;;;22.81;52.97
68476;BME280;55464;48.266;14.188;2023-09-30T00:35:06;98305.53;;;22.91;52.82
68476;BME280;55464;48.266;14.188;2023-09-30T00:37:40;98299.53;;;22.89;52.87
68476;BME280;55464;48.266;14.188;2023-09-30T00:40:07;98311.13;;;22.94;52.96
68476;BME280;55464;48.266;14.188;2023-09-30T00:42:39;98300.00;;;22.80;53.33
68476;BME280;55464;48.266;14.188;2023-09-30T00:45:06;98318.00;;;22.90;53.20
68476;BME280;55464;48.266;14.188;2023-09-30T00:47:34;98312.41;;;22.86;53.27
68476;BME280;55464;48.266;14.188;2023-09-30T00:50:01;98316.81;;;22.87;53.55
68476;BME280;55464;48.266;14.188;2023-09-30T00:52:29;98318.41;;;22.88;53.64
68476;BME280;55464;48.266;14.188;2023-09-30T00:54:56;98323.59;;;22.93;53.12
68476;BME280;55464;48.266;14.188;2023-09-30T00:57:21;98334.84;;;22.93;53.48
68476;BME280;55464;48.266;14.188;2023-09-30T00:59:47;98263.03;;;22.36;53.85
68476;BME280;55464;48.266;14.188;2023-09-30T01:02:13;98338.94;;;22.81;54.29
68476;BME280;55464;48.266;14.188;2023-09-30T01:04:40;98342.47;;;22.89;54.50
68476;BME280;55464;48.266;14.188;2023-09-30T01:07:05;98340.09;;;22.88;54.23
68476;BME280;55464;48.266;14.188;2023-09-30T01:09:31;98332.84;;;22.90;54.33
68476;BME280;55464;48.266;14.188;2023-09-30T01:11:58;98335.66;;;22.90;54.53
68476;BME280;55464;48.266;14.188;2023-09-30T01:14:33;98346.03;;;22.97;54.52
68476;BME280;55464;48.266;14.188;2023-09-30T01:17:07;98351.63;;;23.00;54.73
68476;BME280;55464;48.266;14.188;2023-09-30T01:19:40;98331.97;;;23.00;54.49
68476;BME280;55464;48.266;14.188;2023-09-30T01:22:05;98350.41;;;23.05;54.87
68476;BME280;55464;48.266;14.188;2023-09-30T01:24:39;98342.81;;;22.98;54.86
68476;BME280;55464;48.266;14.188;2023-09-30T01:27:05;98347.22;;;22.99;54.99
68476;BME280;55464;48.266;14.188;2023-09-30T01:29:31;98347.59;;;23.05;54.96
68476;BME280;55464;48.266;14.188;2023-09-30T01:31:57;98338.00;;;22.99;55.04
68476;BME280;55464;48.266;14.188;2023-09-30T01:34:22;98342.78;;;23.02;55.42
68476;BME280;55464;48.266;14.188;2023-09-30T01:36:48;98335.59;;;22.97;55.50
68476;BME280;55464;48.266;14.188;2023-09-30T01:39:14;98348.78;;;23.08;55.46
68476;BME280;55464;48.266;14.188;2023-09-30T01:41:40;98360.75;;;23.15;55.28
68476;BME280;55464;48.266;14.188;2023-09-30T01:44:06;98356.34;;;23.18;55.27
68476;BME280;55464;48.266;14.188;2023-09-30T01:46:32;98361.09;;;23.21;55.13
68476;BME280;55464;48.266;14.188;2023-09-30T01:48:57;98347.09;;;23.17;54.92
68476;BME280;55464;48.266;14.188;2023-09-30T01:51:22;98367.13;;;23.23;55.06
68476;BME280;55464;48.266;14.188;2023-09-30T01:53:49;98365.16;;;23.20;54.66
68476;BME280;55464;48.266;14.188;2023-09-30T01:56:14;98362.72;;;23.22;54.79
68476;BME280;55464;48.266;14.188;2023-09-30T01:58:40;98373.44;;;23.34;54.32
68476;BME280;55464;48.266;14.188;2023-09-30T02:01:05;98375.88;;;23.32;54.56
68476;BME280;55464;48.266;14.188;2023-09-30T02:03:31;98379.91;;;23.31;54.55
68476;BME280;55464;48.266;14.188;2023-09-30T02:05:58;98395.16;;;23.34;54.54
68476;BME280;55464;48.266;14.188;2023-09-30T02:08:23;98393.56;;;23.33;54.33
68476;BME280;55464;48.266;14.188;2023-09-30T02:10:49;98402.00;;;23.33;54.21
68476;BME280;55464;48.266;14.188;2023-09-30T02:13:16;98400.78;;;23.34;54.37
68476;BME280;55464;48.266;14.188;2023-09-30T02:15:42;98400.81;;;23.30;54.17
68476;BME280;55464;48.266;14.188;2023-09-30T02:18:08;98407.19;;;23.34;54.43
68476;BME280;55464;48.266;14.188;2023-09-30T02:20:34;98412.81;;;23.34;54.33
68476;BME280;55464;48.266;14.188;2023-09-30T02:23:00;98402.41;;;23.31;54.56
68476;BME280;55464;48.266;14.188;2023-09-30T02:25:27;98406.06;;;23.28;54.49
68476;BME280;55464;48.266;14.188;2023-09-30T02:27:53;98405.22;;;23.31;54.20
68476;BME280;55464;48.266;14.188;2023-09-30T02:30:19;98399.63;;;23.28;54.29
68476;BME280;55464;48.266;14.188;2023-09-30T02:32:44;98402.44;;;23.28;54.59
68476;BME280;55464;48.266;14.188;2023-09-30T02:35:11;98410.88;;;23.28;54.69
68476;BME280;55464;48.266;14.188;2023-09-30T02:37:37;98412.88;;;23.27;54.59
68476;BME280;55464;48.266;14.188;2023-09-30T02:40:03;98409.31;;;23.23;54.57
68476;BME280;55464;48.266;14.188;2023-09-30T02:42:39;98410.59;;;23.15;54.17
68476;BME280;55464;48.266;14.188;2023-09-30T02:45:06;98414.16;;;23.19;53.48
68476;BME280;55464;48.266;14.188;2023-09-30T02:47:34;98415.78;;;23.16;52.82
68476;BME280;55464;48.266;14.188;2023-09-30T02:50:00;98413.50;;;22.97;52.02
68476;BME280;55464;48.266;14.188;2023-09-30T02:52:27;98421.16;;;22.93;51.99
68476;BME280;55464;48.266;14.188;2023-09-30T02:54:54;98425.97;;;22.92;52.18
68476;BME280;55464;48.266;14.188;2023-09-30T02:57:20;98436.78;;;22.97;51.57
68476;BME280;55464;48.266;14.188;2023-09-30T02:59:47;98429.63;;;22.85;51.69
68476;BME280;55464;48.266;14.188;2023-09-30T03:02:12;98434.06;;;22.83;51.58
68476;BME280;55464;48.266;14.188;2023-09-30T03:04:38;98435.72;;;22.77;51.69
68476;BME280;55464;48.266;14.188;2023-09-30T03:07:03;98434.56;;;22.71;51.61
68476;BME280;55464;48.266;14.188;2023-09-30T03:09:29;98430.13;;;22.73;51.87
68476;BME280;55464;48.266;14.188;2023-09-30T03:11:54;98438.97;;;22.68;51.96
68476;BME280;55464;48.266;14.188;2023-09-30T03:14:24;98440.59;;;22.65;52.05
68476;BME280;55464;48.266;14.188;2023-09-30T03:16:50;98431.84;;;22.56;52.12
68476;BME280;55464;48.266;14.188;2023-09-30T03:19:15;98442.63;;;22.61;52.28
68476;BME280;55464;48.266;14.188;2023-09-30T03:21:42;98431.41;;;22.58;52.25
68476;BME280;55464;48.266;14.188;2023-09-30T03:24:08;98426.63;;;22.55;52.22
68476;BME280;55464;48.266;14.188;2023-09-30T03:26:34;98429.44;;;22.51;52.11
68476;BME280;55464;48.266;14.188;2023-09-30T03:29:00;98437.44;;;22.60;52.33
68476;BME280;55464;48.266;14.188;2023-09-30T03:31:25;98443.09;;;22.45;52.35
68476;BME280;55464;48.266;14.188;2023-09-30T03:33:51;98447.09;;;22.52;52.33
68476;BME280;55464;48.266;14.188;2023-09-30T03:36:23;98458.34;;;22.48;52.48
68476;BME280;55464;48.266;14.188;2023-09-30T03:38:50;98465.56;;;22.45;52.64
68476;BME280;55464;48.266;14.188;2023-09-30T03:41:15;98457.53;;;22.44;52.29
68476;BME280;55464;48.266;14.188;2023-09-30T03:43:41;98461.97;;;22.45;52.47
68476;BME280;55464;48.266;14.188;2023-09-30T03:46:09;98449.97;;;22.41;52.49
68476;BME280;55464;48.266;14.188;2023-09-30T03:48:37;98448.78;;;22.35;52.49
68476;BME280;55464;48.266;14.188;2023-09-30T03:51:13;98450.81;;;22.31;52.62
68476;BME280;55464;48.266;14.188;2023-09-30T03:53:46;98455.56;;;22.41;52.38
68476;BME280;55464;48.266;14.188;2023-09-30T03:56:12;98451.53;;;22.42;52.29
68476;BME280;55464;48.266;14.188;2023-09-30T03:58:41;98449.13;;;22.40;51.79
68476;BME280;55464;48.266;14.188;2023-09-30T04:01:08;98453.16;;;22.39;52.32
68476;BME280;55464;48.266;14.188;2023-09-30T04:03:36;98452.78;;;22.37;52.53
68476;BME280;55464;48.266;14.188;2023-09-30T04:06:05;98456.00;;;22.32;52.35
68476;BME280;55464;48.266;14.188;2023-09-30T04:08:32;98457.59;;;22.26;52.32
68476;BME280;55464;48.266;14.188;2023-09-30T04:10:59;98470.47;;;22.31;52.51
68476;BME280;55464;48.266;14.188;2023-09-30T04:13:25;98474.44;;;22.37;52.28
68476;BME280;55464;48.266;14.188;2023-09-30T04:15:50;98466.84;;;22.34;52.44
68476;BME280;55464;48.266;14.188;2023-09-30T04:18:16;98472.06;;;22.35;52.44
68476;BME280;55464;48.266;14.188;2023-09-30T04:20:41;98475.25;;;22.41;52.31
68476;BME280;55464;48.266;14.188;2023-09-30T04:23:07;98484.47;;;22.38;52.50
68476;BME280;55464;48.266;14.188;2023-09-30T04:25:35;98493.28;;;22.40;52.19
68476;BME280;55464;48.266;14.188;2023-09-30T04:28:00;98483.28;;;22.32;52.54
68476;BME280;55464;48.266;14.188;2023-09-30T04:30:28;98500.13;;;22.35;52.40
68476;BME280;55464;48.266;14.188;2023-09-30T04:32:54;98491.31;;;22.30;52.53
68476;BME280;55464;48.266;14.188;2023-09-30T04:35:20;98492.53;;;22.28;52.91
68476;BME280;55464;48.266;14.188;2023-09-30T04:37:46;98484.09;;;22.28;52.71
68476;BME280;55464;48.266;14.188;2023-09-30T04:40:12;98500.56;;;22.30;52.50
68476;BME280;55464;48.266;14.188;2023-09-30T04:42:44;98515.75;;;22.36;52.92
68476;BME280;55464;48.266;14.188;2023-09-30T04:45:10;98497.31;;;22.32;52.92
68476;BME280;55464;48.266;14.188;2023-09-30T04:47:36;98509.75;;;22.38;52.69
68476;BME280;55464;48.266;14.188;2023-09-30T04:50:06;98514.19;;;22.28;53.06
68476;BME280;55464;48.266;14.188;2023-09-30T04:52:33;98533.81;;;22.32;52.97
68476;BME280;55464;48.266;14.188;2023-09-30T04:54:58;98531.84;;;22.32;53.18
68476;BME280;55464;48.266;14.188;2023-09-30T04:57:26;98535.41;;;22.36;52.94
68476;BME280;55464;48.266;14.188;2023-09-30T04:59:51;98523.81;;;22.31;52.71
68476;BME280;55464;48.266;14.188;2023-09-30T05:02:16;98543.84;;;22.36;52.61
68476;BME280;55464;48.266;14.188;2023-09-30T05:04:42;98557.88;;;22.36;52.89
68476;BME280;55464;48.266;14.188;2023-09-30T05:07:08;98555.88;;;22.37;53.08
68476;BME280;55464;48.266;14.188;2023-09-30T05:09:33;98569.13;;;22.36;52.93
68476;BME280;55464;48.266;14.188;2023-09-30T05:11:59;98566.31;;;22.40;53.12
68476;BME280;55464;48.266;14.188;2023-09-30T05:14:24;98558.66;;;22.40;52.96
68476;BME280;55464;48.266;14.188;2023-09-30T05:16:50;98551.06;;;22.41;53.21
68476;BME280;55464;48.266;14.188;2023-09-30T05:19:15;98539.84;;;22.37;53.17
68476;BME280;55464;48.266;14.188;2023-09-30T05:21:41;98543.44;;;22.38;52.70
68476;BME280;55464;48.266;14.188;2023-09-30T05:24:08;98549.44;;;22.40;52.94
68476;BME280;55464;48.266;14.188;2023-09-30T05:26:33;98551.88;;;22.38;52.71
68476;BME280;55464;48.266;14.188;2023-09-30T05:28:59;98551.88;;;22.38;52.77
68476;BME280;55464;48.266;14.188;2023-09-30T05:31:25;98554.28;;;22.39;52.56
68476;BME280;55464;48.266;14.188;2023-09-30T05:33:50;98547.03;;;22.38;52.60
68476;BME280;55464;48.266;14.188;2023-09-30T05:36:16;98556.69;;;22.37;52.68
68476;BME280;55464;48.266;14.188;2023-09-30T05:38:41;98550.66;;;22.32;52.84
68476;BME280;55464;48.266;14.188;2023-09-30T05:41:07;98556.28;;;22.28;52.87
68476;BME280;55464;48.266;14.188;2023-09-30T05:43:33;98573.97;;;22.28;52.90
68476;BME280;55464;48.266;14.188;2023-09-30T05:45:59;98571.16;;;22.32;53.00
68476;BME280;55464;48.266;14.188;2023-09-30T05:48:24;98578.34;;;22.26;53.20
68476;BME280;55464;48.266;14.188;2023-09-30T05:50:50;98571.94;;;22.25;52.87
68476;BME280;55464;48.266;14.188;2023-09-30T05:53:15;98569.13;;;22.25;53.25
68476;BME280;55464;48.266;14.188;2023-09-30T05:55:41;98577.16;;;22.27;53.33
68476;BME280;55464;48.266;14.188;2023-09-30T05:58:09;98582.00;;;22.30;53.17
68476;BME280;55464;48.266;14.188;2023-09-30T06:00:35;98576.75;;;22.32;53.27
68476;BME280;55464;48.266;14.188;2023-09-30T06:03:01;98573.56;;;22.30;52.98
68476;BME280;55464;48.266;14.188;2023-09-30T06:05:27;98579.16;;;22.37;52.94
68476;BME280;55464;48.266;14.188;2023-09-30T06:07:55;98584.38;;;22.39;53.30
68476;BME280;55464;48.266;14.188;2023-09-30T06:10:21;98585.56;;;22.41;52.65
68476;BME280;55464;48.266;14.188;2023-09-30T06:12:47;98588.38;;;22.41;53.01
68476;BME280;55464;48.266;14.188;2023-09-30T06:15:16;98566.72;;;22.35;53.01
68476;BME280;55464;48.266;14.188;2023-09-30T06:17:47;98586.75;;;22.48;53.52
68476;BME280;55464;48.266;14.188;2023-09-30T06:20:13;98592.78;;;22.50;53.00
68476;BME280;55464;48.266;14.188;2023-09-30T06:22:46;98579.13;;;22.44;53.19
68476;BME280;55464;48.266;14.188;2023-09-30T06:25:12;98587.56;;;22.48;53.29
68476;BME280;55464;48.266;14.188;2023-09-30T06:27:42;98574.31;;;22.45;52.93
68476;BME280;55464;48.266;14.188;2023-09-30T06:30:08;98577.91;;;22.53;52.81
68476;BME280;55464;48.266;14.188;2023-09-30T06:32:34;98570.31;;;22.50;53.14
68476;BME280;55464;48.266;14.188;2023-09-30T06:35:02;98566.28;;;22.51;52.97
68476;BME280;55464;48.266;14.188;2023-09-30T06:37:28;98570.66;;;22.59;53.13
68476;BME280;55464;48.266;14.188;2023-09-30T06:39:55;98574.66;;;22.61;53.48
68476;BME280;55464;48.266;14.188;2023-09-30T06:42:21;98575.06;;;22.63;53.92
68476;BME280;55464;48.266;14.188;2023-09-30T06:44:47;98561.84;;;22.60;53.40
68476;BME280;55464;48.266;14.188;2023-09-30T06:47:13;98574.63;;;22.76;54.28
68476;BME280;55464;48.266;14.188;2023-09-30T06:49:38;98565.00;;;22.73;53.47
68476;BME280;55464;48.266;14.188;2023-09-30T06:52:05;98581.84;;;22.77;53.63
68476;BME280;55464;48.266;14.188;2023-09-30T06:54:31;98580.25;;;22.76;53.01
68476;BME280;55464;48.266;14.188;2023-09-30T06:56:56;98583.44;;;22.78;53.19
68476;BME280;55464;48.266;14.188;2023-09-30T06:59:22;98585.06;;;22.72;53.12
68476;BME280;55464;48.266;14.188;2023-09-30T07:01:47;98585.88;;;22.76;53.25
68476;BME280;55464;48.266;14.188;2023-09-30T07:04:13;98588.28;;;22.77;53.16
68476;BME280;55464;48.266;14.188;2023-09-30T07:06:38;98587.03;;;22.82;53.19
68476;BME280;55464;48.266;14.188;2023-09-30T07:09:04;98599.88;;;22.83;53.49
68476;BME280;55464;48.266;14.188;2023-09-30T07:11:30;98591.91;;;22.74;52.89
68476;BME280;55464;48.266;14.188;2023-09-30T07:13:58;98605.53;;;22.76;53.16
68476;BME280;55464;48.266;14.188;2023-09-30T07:16:24;98604.72;;;22.75;53.61
68476;BME280;55464;48.266;14.188;2023-09-30T07:18:49;98613.53;;;22.84;53.27
68476;BME280;55464;48.266;14.188;2023-09-30T07:21:16;98613.53;;;22.88;52.77
68476;BME280;55464;48.266;14.188;2023-09-30T07:23:42;98606.66;;;22.93;53.26
68476;BME280;55464;48.266;14.188;2023-09-30T07:26:08;98619.50;;;23.01;53.43
68476;BME280;55464;48.266;14.188;2023-09-30T07:28:34;98625.94;;;22.94;52.20
68476;BME280;55464;48.266;14.188;2023-09-30T07:31:02;98628.75;;;22.94;52.66
68476;BME280;55464;48.266;14.188;2023-09-30T07:33:28;98629.56;;;22.98;52.51
68476;BME280;55464;48.266;14.188;2023-09-30T07:35:55;98637.16;;;23.01;52.26
68476;BME280;55464;48.266;14.188;2023-09-30T07:38:21;98625.91;;;23.01;52.69
68476;BME280;55464;48.266;14.188;2023-09-30T07:40:47;98625.50;;;22.99;52.43
68476;BME280;55464;48.266;14.188;2023-09-30T07:43:14;98626.72;;;23.09;52.79
68476;BME280;55464;48.266;14.188;2023-09-30T07:45:39;98633.94;;;23.10;52.53
68476;BME280;55464;48.266;14.188;2023-09-30T07:48:07;98641.13;;;23.18;53.06
68476;BME280;55464;48.266;14.188;2023-09-30T07:50:35;98642.78;;;23.09;52.47
68476;BME280;55464;48.266;14.188;2023-09-30T07:53:00;98629.94;;;23.04;52.08
68476;BME280;55464;48.266;14.188;2023-09-30T07:55:26;98631.53;;;23.09;52.24
68476;BME280;55464;48.266;14.188;2023-09-30T07:57:51;98645.97;;;23.18;52.16
68476;BME280;55464;48.266;14.188;2023-09-30T08:00:17;98641.56;;;23.13;51.91
68476;BME280;55464;48.266;14.188;2023-09-30T08:02:43;98637.94;;;23.13;52.52
68476;BME280;55464;48.266;14.188;2023-09-30T08:05:10;98630.31;;;23.10;51.88
68476;BME280;55464;48.266;14.188;2023-09-30T08:07:54;98617.47;;;23.05;52.03
68476;BME280;55464;48.266;14.188;2023-09-30T08:14:22;98633.94;;;23.10;52.59
68476;BME280;55464;48.266;14.188;2023-09-30T08:17:30;98630.63;;;23.26;52.60
68476;BME280;55464;48.266;14.188;2023-09-30T08:20:33;98637.47;;;23.29;51.92
68476;BME280;55464;48.266;14.188;2023-09-30T08:24:03;98632.63;;;23.29;51.75
68476;BME280;55464;48.266;14.188;2023-09-30T08:26:57;98641.88;;;23.30;51.46
68476;BME280;55464;48.266;14.188;2023-09-30T08:29:53;98637.91;;;23.24;51.67
68476;BME280;55464;48.266;14.188;2023-09-30T08:33:01;98637.53;;;23.18;51.95
68476;BME280;55464;48.266;14.188;2023-09-30T08:39:23;98637.91;;;23.24;51.99
68476;BME280;55464;48.266;14.188;2023-09-30T08:42:40;98642.66;;;23.37;52.24
68476;BME280;55464;48.266;14.188;2023-09-30T08:45:30;98632.94;;;23.46;52.18
68476;BME280;55464;48.266;14.188;2023-09-30T08:48:01;98635.38;;;23.44;51.59
68476;BME280;55464;48.266;14.188;2023-09-30T08:50:31;98631.34;;;23.48;51.77
68476;BME280;55464;48.266;14.188;2023-09-30T08:52:57;98636.16;;;23.51;51.73
68476;BME280;55464;48.266;14.188;2023-09-30T08:55:23;98630.13;;;23.46;51.55
68476;BME280;55464;48.266;14.188;2023-09-30T08:57:49;98632.13;;;23.49;51.15
68476;BME280;55464;48.266;14.188;2023-09-30T09:00:15;98635.69;;;23.60;51.78
68476;BME280;55464;48.266;14.188;2023-09-30T09:02:42;98633.28;;;23.58;51.62
68476;BME280;55464;48.266;14.188;2023-09-30T09:05:08;98633.31;;;23.55;51.06
68476;BME280;55464;48.266;14.188;2023-09-30T09:07:35;98628.00;;;23.68;51.83
68476;BME280;55464;48.266;14.188;2023-09-30T09:10:08;98652.91;;;23.69;51.39
68476;BME280;55464;48.266;14.188;2023-09-30T09:12:36;98646.50;;;23.65;51.15
68476;BME280;55464;48.266;14.188;2023-09-30T09:15:02;98642.78;;;23.75;51.85
68476;BME280;55464;48.266;14.188;2023-09-30T09:17:41;98633.94;;;23.77;51.56
68476;BME280;55464;48.266;14.188;2023-09-30T09:20:08;98632.34;;;23.83;51.06
68476;BME280;55464;48.266;14.188;2023-09-30T09:22:43;98633.50;;;23.86;50.98
68476;BME280;55464;48.266;14.188;2023-09-30T09:25:10;98635.06;;;23.94;51.23
68476;BME280;55464;48.266;14.188;2023-09-30T09:27:36;98630.66;;;23.89;51.65
68476;BME280;55464;48.266;14.188;2023-09-30T09:35:21;98645.09;;;23.99;50.68
68476;BME280;55464;48.266;14.188;2023-09-30T09:38:06;98639.06;;;24.00;51.11
68476;BME280;55464;48.266;14.188;2023-09-30T09:43:00;98619.38;;;23.93;50.38
68476;BME280;55464;48.266;14.188;2023-09-30T09:45:28;98642.63;;;24.04;50.12
68476;BME280;55464;48.266;14.188;2023-09-30T09:47:54;98636.59;;;24.06;50.36
68476;BME280;55464;48.266;14.188;2023-09-30T09:50:23;98645.41;;;24.08;50.03
68476;BME280;55464;48.266;14.188;2023-09-30T09:52:50;98641.72;;;24.18;49.98
68476;BME280;55464;48.266;14.188;2023-09-30T09:55:18;98632.91;;;24.12;50.02
68476;BME280;55464;48.266;14.188;2023-09-30T09:57:45;98642.03;;;24.27;49.59
68476;BME280;55464;48.266;14.188;2023-09-30T10:00:18;98636.34;;;24.31;49.41
68476;BME280;55464;48.266;14.188;2023-09-30T10:02:47;98634.78;;;24.26;48.88
68476;BME280;55464;48.266;14.188;2023-09-30T10:05:14;98639.69;;;24.19;48.06
68476;BME280;55464;48.266;14.188;2023-09-30T10:08:02;98654.91;;;24.28;48.35
68476;BME280;55464;48.266;14.188;2023-09-30T10:10:29;98645.25;;;24.26;47.33
68476;BME280;55464;48.266;14.188;2023-09-30T10:12:55;98650.94;;;24.22;47.97
68476;BME280;55464;48.266;14.188;2023-09-30T10:18:09;98649.59;;;24.38;47.83
68476;BME280;55464;48.266;14.188;2023-09-30T10:20:39;98640.72;;;24.39;48.19
68476;BME280;55464;48.266;14.188;2023-09-30T10:23:28;98640.38;;;24.33;47.86
68476;BME280;55464;48.266;14.188;2023-09-30T10:31:21;98626.78;;;24.25;47.46
68476;BME280;55464;48.266;14.188;2023-09-30T10:36:38;98633.47;;;24.38;47.39
68476;BME280;55464;48.266;14.188;2023-09-30T10:39:06;98637.44;;;24.44;48.21
68476;BME280;55464;48.266;14.188;2023-09-30T10:46:59;98628.13;;;24.55;46.42
68476;BME280;55464;48.266;14.188;2023-09-30T10:54:24;98608.31;;;24.62;46.00
68476;BME280;55464;48.266;14.188;2023-09-30T10:56:50;98613.50;;;24.67;45.61
68476;BME280;55464;48.266;14.188;2023-09-30T10:59:22;98607.44;;;24.68;45.03
68476;BME280;55464;48.266;14.188;2023-09-30T11:01:48;98605.09;;;24.63;44.46
68476;BME280;55464;48.266;14.188;2023-09-30T11:04:14;98606.66;;;24.64;44.97
68476;BME280;55464;48.266;14.188;2023-09-30T11:06:41;98608.25;;;24.69;45.62
68476;BME280;55464;48.266;14.188;2023-09-30T11:09:08;98604.59;;;24.72;45.00
68476;BME280;55464;48.266;14.188;2023-09-30T11:11:41;98592.06;;;24.73;45.19
68476;BME280;55464;48.266;14.188;2023-09-30T11:14:27;98597.25;;;24.78;45.51
68476;BME280;55464;48.266;14.188;2023-09-30T11:16:54;98609.63;;;24.88;45.24
68476;BME280;55464;48.266;14.188;2023-09-30T11:19:21;98599.16;;;24.88;44.72
68476;BME280;55464;48.266;14.188;2023-09-30T11:21:53;98600.75;;;24.89;44.53
68476;BME280;55464;48.266;14.188;2023-09-30T11:24:20;98601.53;;;24.90;44.05
68476;BME280;55464;48.266;14.188;2023-09-30T11:26:46;98586.25;;;24.87;44.30
68476;BME280;55464;48.266;14.188;2023-09-30T11:29:14;98594.66;;;24.91;44.52
68476;BME280;55464;48.266;14.188;2023-09-30T11:31:42;98585.88;;;24.85;44.77
68476;BME280;55464;48.266;14.188;2023-09-30T11:34:09;98591.84;;;24.91;45.60
68476;BME280;55464;48.266;14.188;2023-09-30T11:36:37;98581.91;;;24.83;45.45
68476;BME280;55464;48.266;14.188;2023-09-30T11:39:03;98583.44;;;24.87;45.21
68476;BME280;55464;48.266;14.188;2023-09-30T11:41:37;98587.50;;;24.86;45.54
68476;BME280;55464;48.266;14.188;2023-09-30T11:47:15;98602.06;;;24.81;45.52
68476;BME280;55464;48.266;14.188;2023-09-30T11:49:43;98593.25;;;24.76;46.17
68476;BME280;55464;48.266;14.188;2023-09-30T11:52:13;98597.28;;;24.75;46.35
68476;BME280;55464;48.266;14.188;2023-09-30T11:54:44;98605.19;;;24.87;46.36
68476;BME280;55464;48.266;14.188;2023-09-30T11:57:17;98598.22;;;24.99;46.66
68476;BME280;55464;48.266;14.188;2023-09-30T11:59:44;98588.97;;;24.98;45.79
68476;BME280;55464;48.266;14.188;2023-09-30T12:02:11;98591.97;;;25.15;46.65
68476;BME280;55464;48.266;14.188;2023-09-30T12:04:38;98584.19;;;25.22;45.79
68476;BME280;55464;48.266;14.188;2023-09-30T12:07:04;98587.38;;;25.24;45.00
68476;BME280;55464;48.266;14.188;2023-09-30T12:09:29;98584.53;;;25.28;44.35
68476;BME280;55464;48.266;14.188;2023-09-30T12:11:57;98584.41;;;25.39;44.79
68476;BME280;55464;48.266;14.188;2023-09-30T12:14:24;98578.72;;;25.42;44.63
68476;BME280;55464;48.266;14.188;2023-09-30T12:16:49;98573.59;;;25.34;43.50
68476;BME280;55464;48.266;14.188;2023-09-30T12:19:16;98577.91;;;25.42;44.04
68476;BME280;55464;48.266;14.188;2023-09-30T12:21:44;98589.53;;;25.47;43.49
68476;BME280;55464;48.266;14.188;2023-09-30T12:24:13;98594.34;;;25.47;43.70
68476;BME280;55464;48.266;14.188;2023-09-30T12:26:49;98587.13;;;25.46;43.49
68476;BME280;55464;48.266;14.188;2023-09-30T12:29:18;98585.88;;;25.47;42.86
68476;BME280;55464;48.266;14.188;2023-09-30T12:31:44;98588.22;;;25.52;42.87
68476;BME280;55464;48.266;14.188;2023-09-30T12:34:11;98584.09;;;25.60;43.87
68476;BME280;55464;48.266;14.188;2023-09-30T12:36:38;98596.94;;;25.65;43.01
68476;BME280;55464;48.266;14.188;2023-09-30T12:39:04;98572.06;;;25.56;43.25
68476;BME280;55464;48.266;14.188;2023-09-30T12:41:37;98586.59;;;25.55;41.91
68476;BME280;55464;48.266;14.188;2023-09-30T12:44:02;98572.59;;;25.47;42.40
68476;BME280;55464;48.266;14.188;2023-09-30T12:46:28;98567.84;;;25.41;42.49
68476;BME280;55464;48.266;14.188;2023-09-30T12:48:54;98553.47;;;25.32;42.86
68476;BME280;55464;48.266;14.188;2023-09-30T12:51:20;98559.81;;;25.39;43.76
68476;BME280;55464;48.266;14.188;2023-09-30T12:53:45;98570.66;;;25.41;43.72
68476;BME280;55464;48.266;14.188;2023-09-30T12:56:11;98553.69;;;25.44;43.50
68476;BME280;55464;48.266;14.188;2023-09-30T12:58:36;98565.81;;;25.41;43.41
68476;BME280;55464;48.266;14.188;2023-09-30T13:01:03;98577.47;;;25.43;43.50
68476;BME280;55464;48.266;14.188;2023-09-30T13:03:31;98565.88;;;25.38;43.79
68476;BME280;55464;48.266;14.188;2023-09-30T13:05:57;98567.75;;;25.48;44.20
68476;BME280;55464;48.266;14.188;2023-09-30T13:08:23;98573.69;;;25.54;43.40
68476;BME280;55464;48.266;14.188;2023-09-30T13:10:48;98562.59;;;25.66;43.50
68476;BME280;55464;48.266;14.188;2023-09-30T13:13:16;98559.28;;;25.72;42.45
68476;BME280;55464;48.266;14.188;2023-09-30T13:15:43;98554.09;;;25.70;42.16
68476;BME280;55464;48.266;14.188;2023-09-30T13:18:09;98550.66;;;25.82;42.21
68476;BME280;55464;48.266;14.188;2023-09-30T13:20:35;98547.44;;;25.80;41.97
68476;BME280;55464;48.266;14.188;2023-09-30T13:23:00;98551.25;;;25.97;42.32
68476;BME280;55464;48.266;14.188;2023-09-30T13:25:26;98546.78;;;26.00;42.53
68476;BME280;55464;48.266;14.188;2023-09-30T13:27:52;98534.66;;;25.99;41.90
68476;BME280;55464;48.266;14.188;2023-09-30T13:30:17;98541.53;;;25.98;41.57
68476;BME280;55464;48.266;14.188;2023-09-30T13:32:43;98551.47;;;26.07;40.91
68476;BME280;55464;48.266;14.188;2023-09-30T13:35:09;98537.28;;;26.10;41.21